sensor_id;sensor_type;location;lat;lon;timestamp;pressure;altitude;pressure_sealevel;temperature;humidity
22181;BME280;11256;50.830;12.834;2023-02-17T00:02:42;98092.28;;;9.66;60.43
22181;BME280;11256;50.830;12.834;2023-02-17T00:07:42;98081.94;;;9.53;60.08
22181;BME280;11256;50.830;12.834;2023-02-17T00:12:43;98093.56;;;9.53;60.58
22181;BME280;11256;50.830;12.834;2023-02-17T00:17:43;98080.28;;;9.47;60.70
22181;BME280;11256;50.830;12.834;2023-02-17T00:22:43;98077.88;;;9.50;60.90
22181;BME280;11256;50.830;12.834;2023-02-17T00:27:44;98081.41;;;9.56;61.91
22181;BME280;11256;50.830;12.834;2023-02-17T00:32:44;98078.16;;;9.54;61.98
22181;BME280;11256;50.830;12.834;2023-02-17T00:37:46;98067.31;;;9.49;62.26
22181;BME280;11256;50.830;12.834;2023-02-17T00:42:46;98058.38;;;9.48;62.05
22181;BME280;11256;50.830;12.834;2023-02-17T00:47:47;98056.75;;;9.47;63.19
22181;BME280;11256;50.830;12.834;2023-02-17T00:52:50;98045.66;;;9.44;62.96
22181;BME280;11256;50.830;12.834;2023-02-17T00:57:50;98048.91;;;9.46;62.78
22181;BME280;11256;50.830;12.834;2023-02-17T01:02:51;98029.91;;;9.36;62.62
22181;BME280;11256;50.830;12.834;2023-02-17T01:07:51;98038.09;;;9.46;62.60
22181;BME280;11256;50.830;12.834;2023-02-17T01:12:51;98021.53;;;9.32;62.68
22181;BME280;11256;50.830;12.834;2023-02-17T01:17:54;98016.41;;;9.36;62.57
22181;BME280;11256;50.830;12.834;2023-02-17T01:22:55;98038.03;;;9.36;61.97
22181;BME280;11256;50.830;12.834;2023-02-17T01:27:56;98030.50;;;9.38;63.21
22181;BME280;11256;50.830;12.834;2023-02-17T01:32:57;98026.16;;;9.37;62.80
22181;BME280;11256;50.830;12.834;2023-02-17T01:37:57;98018.06;;;9.37;62.67
22181;BME280;11256;50.830;12.834;2023-02-17T01:42:57;98016.94;;;9.33;62.93
22181;BME280;11256;50.830;12.834;2023-02-17T01:48:03;97995.31;;;9.33;62.61
22181;BME280;11256;50.830;12.834;2023-02-17T01:53:06;97993.44;;;9.38;62.50
22181;BME280;11256;50.830;12.834;2023-02-17T01:58:10;97987.72;;;9.35;63.00
22181;BME280;11256;50.830;12.834;2023-02-17T02:03:13;97978.50;;;9.31;63.01
22181;BME280;11256;50.830;12.834;2023-02-17T02:08:14;97986.13;;;9.34;62.85
22181;BME280;11256;50.830;12.834;2023-02-17T02:13:15;97985.84;;;9.30;63.22
22181;BME280;11256;50.830;12.834;2023-02-17T02:34:21;97965.03;;;9.41;62.79
22181;BME280;11256;50.830;12.834;2023-02-17T02:39:25;97950.97;;;9.39;62.99
22181;BME280;11256;50.830;12.834;2023-02-17T02:44:29;97952.59;;;9.40;63.32
22181;BME280;11256;50.830;12.834;2023-02-17T02:49:32;97944.47;;;9.35;63.42
22181;BME280;11256;50.830;12.834;2023-02-17T03:11:00;97918.50;;;9.34;63.58
22181;BME280;11256;50.830;12.834;2023-02-17T03:16:00;97908.50;;;9.29;64.04
22181;BME280;11256;50.830;12.834;2023-02-17T03:21:05;97914.19;;;9.33;63.87
22181;BME280;11256;50.830;12.834;2023-02-17T03:26:08;97908.78;;;9.33;63.94
22181;BME280;11256;50.830;12.834;2023-02-17T03:31:08;97912.00;;;9.35;64.21
22181;BME280;11256;50.830;12.834;2023-02-17T03:36:08;97905.50;;;9.31;64.75
22181;BME280;11256;50.830;12.834;2023-02-17T03:41:09;97912.56;;;9.32;64.71
22181;BME280;11256;50.830;12.834;2023-02-17T03:46:14;97899.81;;;9.27;65.42
22181;BME280;11256;50.830;12.834;2023-02-17T03:51:20;97918.50;;;9.29;65.36
22181;BME280;11256;50.830;12.834;2023-02-17T03:56:21;97919.56;;;9.23;66.70
22181;BME280;11256;50.830;12.834;2023-02-17T04:01:21;97913.03;;;9.19;66.47
22181;BME280;11256;50.830;12.834;2023-02-17T04:06:22;97913.88;;;9.24;67.53
22181;BME280;11256;50.830;12.834;2023-02-17T04:11:23;97923.34;;;9.22;67.34
22181;BME280;11256;50.830;12.834;2023-02-17T04:16:23;97907.13;;;9.22;67.15
22181;BME280;11256;50.830;12.834;2023-02-17T04:21:23;97911.97;;;9.25;66.74
22181;BME280;11256;50.830;12.834;2023-02-17T04:26:24;97902.81;;;9.26;66.74
22181;BME280;11256;50.830;12.834;2023-02-17T04:31:24;97908.22;;;9.26;67.26
22181;BME280;11256;50.830;12.834;2023-02-17T04:36:27;97882.78;;;9.17;67.47
22181;BME280;11256;50.830;12.834;2023-02-17T04:41:27;97891.19;;;9.25;67.53
22181;BME280;11256;50.830;12.834;2023-02-17T04:46:27;97907.63;;;9.19;68.05
22181;BME280;11256;50.830;12.834;2023-02-17T04:51:28;97883.31;;;9.19;68.42
22181;BME280;11256;50.830;12.834;2023-02-17T04:56:28;97887.09;;;9.18;67.74
22181;BME280;11256;50.830;12.834;2023-02-17T05:01:28;97894.69;;;9.21;68.12
22181;BME280;11256;50.830;12.834;2023-02-17T05:06:29;97888.69;;;9.14;67.82
22181;BME280;11256;50.830;12.834;2023-02-17T05:11:29;97877.09;;;9.13;68.65
22181;BME280;11256;50.830;12.834;2023-02-17T05:16:30;97874.66;;;9.17;68.69
22181;BME280;11256;50.830;12.834;2023-02-17T05:21:30;97855.75;;;9.17;68.71
22181;BME280;11256;50.830;12.834;2023-02-17T05:26:31;97850.06;;;9.18;68.37
22181;BME280;11256;50.830;12.834;2023-02-17T05:31:32;97862.22;;;9.11;69.07
22181;BME280;11256;50.830;12.834;2023-02-17T05:36:32;97869.50;;;9.15;69.12
22181;BME280;11256;50.830;12.834;2023-02-17T05:41:32;97867.34;;;9.07;69.01
22181;BME280;11256;50.830;12.834;2023-02-17T05:46:33;97859.78;;;9.09;69.22
22181;BME280;11256;50.830;12.834;2023-02-17T05:51:33;97860.03;;;9.08;69.51
22181;BME280;11256;50.830;12.834;2023-02-17T05:56:33;97850.00;;;8.93;70.38
22181;BME280;11256;50.830;12.834;2023-02-17T06:01:34;97858.41;;;9.02;69.40
22181;BME280;11256;50.830;12.834;2023-02-17T06:06:34;97858.41;;;9.02;69.63
22181;BME280;11256;50.830;12.834;2023-02-17T06:11:35;97859.22;;;9.02;69.95
22181;BME280;11256;50.830;12.834;2023-02-17T06:16:35;97858.41;;;9.02;69.96
22181;BME280;11256;50.830;12.834;2023-02-17T06:21:35;97854.59;;;9.03;69.25
22181;BME280;11256;50.830;12.834;2023-02-17T06:26:36;97864.06;;;9.05;69.77
22181;BME280;11256;50.830;12.834;2023-02-17T06:31:36;97866.00;;;9.05;69.12
22181;BME280;11256;50.830;12.834;2023-02-17T06:36:36;97851.38;;;9.01;71.33
22181;BME280;11256;50.830;12.834;2023-02-17T06:41:36;97877.06;;;9.03;69.97
22181;BME280;11256;50.830;12.834;2023-02-17T06:46:37;97859.97;;;8.93;70.55
22181;BME280;11256;50.830;12.834;2023-02-17T06:51:37;97879.22;;;9.01;70.32
22181;BME280;11256;50.830;12.834;2023-02-17T06:56:38;97881.13;;;9.06;70.39
22181;BME280;11256;50.830;12.834;2023-02-17T07:01:38;97864.34;;;8.99;70.92
22181;BME280;11256;50.830;12.834;2023-02-17T07:06:38;97883.25;;;9.04;70.07
22181;BME280;11256;50.830;12.834;2023-02-17T07:11:39;97879.78;;;9.08;71.15
22181;BME280;11256;50.830;12.834;2023-02-17T07:16:39;97876.28;;;9.13;70.74
22181;BME280;11256;50.830;12.834;2023-02-17T07:21:39;97871.41;;;9.10;71.64
22181;BME280;11256;50.830;12.834;2023-02-17T07:26:40;97869.25;;;9.12;71.67
22181;BME280;11256;50.830;12.834;2023-02-17T07:31:40;97858.16;;;9.08;72.01
22181;BME280;11256;50.830;12.834;2023-02-17T07:36:40;97844.38;;;9.20;71.56
22181;BME280;11256;50.830;12.834;2023-02-17T07:41:41;97853.28;;;9.15;71.91
22181;BME280;11256;50.830;12.834;2023-02-17T07:46:43;97852.78;;;9.18;72.06
22181;BME280;11256;50.830;12.834;2023-02-17T07:51:43;97837.34;;;9.24;71.33
22181;BME280;11256;50.830;12.834;2023-02-17T07:56:43;97816.81;;;9.23;71.91
22181;BME280;11256;50.830;12.834;2023-02-17T08:01:44;97825.19;;;9.26;71.14
22181;BME280;11256;50.830;12.834;2023-02-17T08:06:44;97831.44;;;9.32;71.77
22181;BME280;11256;50.830;12.834;2023-02-17T08:11:44;97828.19;;;9.35;71.54
22181;BME280;11256;50.830;12.834;2023-02-17T08:17:04;97836.53;;;9.28;72.61
22181;BME280;11256;50.830;12.834;2023-02-17T08:22:05;97841.69;;;9.35;70.76
22181;BME280;11256;50.830;12.834;2023-02-17T08:27:05;97849.56;;;9.36;70.94
22181;BME280;11256;50.830;12.834;2023-02-17T08:32:05;97854.69;;;9.38;71.25
22181;BME280;11256;50.830;12.834;2023-02-17T08:37:07;97843.03;;;9.32;71.48
22181;BME280;11256;50.830;12.834;2023-02-17T08:42:07;97838.75;;;9.41;72.18
22181;BME280;11256;50.830;12.834;2023-02-17T08:47:08;97828.72;;;9.42;71.63
22181;BME280;11256;50.830;12.834;2023-02-17T08:52:09;97832.53;;;9.46;72.97
22181;BME280;11256;50.830;12.834;2023-02-17T08:57:09;97816.84;;;9.48;72.90
22181;BME280;11256;50.830;12.834;2023-02-17T09:02:10;97817.91;;;9.57;72.65
22181;BME280;11256;50.830;12.834;2023-02-17T09:07:11;97796.84;;;9.59;72.21
22181;BME280;11256;50.830;12.834;2023-02-17T09:12:12;97790.59;;;9.63;72.38
22181;BME280;11256;50.830;12.834;2023-02-17T09:17:12;97800.84;;;9.66;73.14
22181;BME280;11256;50.830;12.834;2023-02-17T09:22:13;97786.53;;;9.71;72.52
22181;BME280;11256;50.830;12.834;2023-02-17T09:27:16;97794.66;;;9.86;73.28
22181;BME280;11256;50.830;12.834;2023-02-17T09:32:17;97770.53;;;9.94;73.47
22181;BME280;11256;50.830;12.834;2023-02-17T09:37:18;97772.44;;;10.04;74.06
22181;BME280;11256;50.830;12.834;2023-02-17T09:42:20;97768.63;;;10.15;73.65
22181;BME280;11256;50.830;12.834;2023-02-17T09:47:24;97753.44;;;10.24;73.88
22181;BME280;11256;50.830;12.834;2023-02-17T09:52:34;97762.03;;;10.36;73.86
22181;BME280;11256;50.830;12.834;2023-02-17T09:58:03;97760.63;;;10.48;73.28
22181;BME280;11256;50.830;12.834;2023-02-17T10:03:17;97761.66;;;10.57;72.91
22181;BME280;11256;50.830;12.834;2023-02-17T10:08:26;97750.56;;;10.59;72.95
22181;BME280;11256;50.830;12.834;2023-02-17T10:13:29;97749.94;;;10.72;72.96
22181;BME280;11256;50.830;12.834;2023-02-17T10:18:42;97730.44;;;10.70;73.34
22181;BME280;11256;50.830;12.834;2023-02-17T10:23:42;97712.47;;;10.84;73.07
22181;BME280;11256;50.830;12.834;2023-02-17T10:29:05;97717.28;;;10.92;72.27
22181;BME280;11256;50.830;12.834;2023-02-17T10:39:29;97715.84;;;11.04;72.62
22181;BME280;11256;50.830;12.834;2023-02-17T10:44:35;97705.78;;;11.05;72.16
22181;BME280;11256;50.830;12.834;2023-02-17T10:49:42;97691.66;;;11.13;72.12
22181;BME280;11256;50.830;12.834;2023-02-17T10:59:58;97679.63;;;11.24;71.77
22181;BME280;11256;50.830;12.834;2023-02-17T11:04:59;97660.63;;;11.24;71.52
22181;BME280;11256;50.830;12.834;2023-02-17T11:10:02;97662.72;;;11.32;70.89
22181;BME280;11256;50.830;12.834;2023-02-17T11:15:07;97646.66;;;11.35;71.24
22181;BME280;11256;50.830;12.834;2023-02-17T11:25:26;97649.78;;;11.24;72.05
22181;BME280;11256;50.830;12.834;2023-02-17T11:30:28;97638.34;;;11.27;72.04
22181;BME280;11256;50.830;12.834;2023-02-17T11:40:36;97625.31;;;11.29;72.14
22181;BME280;11256;50.830;12.834;2023-02-17T11:45:53;97605.84;;;11.22;72.54
22181;BME280;11256;50.830;12.834;2023-02-17T11:51:08;97619.31;;;11.32;72.61
22181;BME280;11256;50.830;12.834;2023-02-17T11:56:16;97593.31;;;11.26;72.75
22181;BME280;11256;50.830;12.834;2023-02-17T12:01:30;97569.25;;;11.43;72.46
22181;BME280;11256;50.830;12.834;2023-02-17T12:12:21;97599.00;;;11.53;72.52
22181;BME280;11256;50.830;12.834;2023-02-17T12:17:40;97593.78;;;11.61;71.92
22181;BME280;11256;50.830;12.834;2023-02-17T12:38:53;97583.75;;;11.62;71.84
22181;BME280;11256;50.830;12.834;2023-02-17T12:44:06;97590.69;;;11.73;71.35
22181;BME280;11256;50.830;12.834;2023-02-17T12:54:33;97545.91;;;11.70;71.07
22181;BME280;11256;50.830;12.834;2023-02-17T12:59:38;97538.00;;;11.74;71.70
22181;BME280;11256;50.830;12.834;2023-02-17T13:04:40;97511.13;;;11.72;71.86
22181;BME280;11256;50.830;12.834;2023-02-17T13:09:44;97517.81;;;11.80;72.03
22181;BME280;11256;50.830;12.834;2023-02-17T13:14:52;97499.41;;;11.77;71.98
22181;BME280;11256;50.830;12.834;2023-02-17T13:20:27;97501.25;;;11.81;72.28
22181;BME280;11256;50.830;12.834;2023-02-17T13:25:31;97511.44;;;11.89;71.98
22181;BME280;11256;50.830;12.834;2023-02-17T13:30:40;97519.81;;;11.93;72.06
22181;BME280;11256;50.830;12.834;2023-02-17T13:35:41;97515.94;;;11.99;71.95
22181;BME280;11256;50.830;12.834;2023-02-17T13:40:41;97511.50;;;12.03;71.91
22181;BME280;11256;50.830;12.834;2023-02-17T13:50:50;97506.97;;;12.17;71.18
22181;BME280;11256;50.830;12.834;2023-02-17T13:55:53;97518.41;;;12.14;71.75
22181;BME280;11256;50.830;12.834;2023-02-17T14:00:54;97509.31;;;12.23;71.17
22181;BME280;11256;50.830;12.834;2023-02-17T14:05:57;97494.22;;;12.17;70.99
22181;BME280;11256;50.830;12.834;2023-02-17T14:11:05;97481.41;;;12.18;71.21
22181;BME280;11256;50.830;12.834;2023-02-17T14:21:24;97491.22;;;12.32;70.99
22181;BME280;11256;50.830;12.834;2023-02-17T14:26:38;97481.69;;;12.35;70.96
22181;BME280;11256;50.830;12.834;2023-02-17T14:31:47;97459.53;;;12.28;71.22
22181;BME280;11256;50.830;12.834;2023-02-17T14:36:47;97464.94;;;12.28;71.19
22181;BME280;11256;50.830;12.834;2023-02-17T14:41:47;97462.75;;;12.30;71.21
22181;BME280;11256;50.830;12.834;2023-02-17T14:46:48;97462.75;;;12.30;71.26
22181;BME280;11256;50.830;12.834;2023-02-17T14:51:48;97451.00;;;12.34;71.27
22181;BME280;11256;50.830;12.834;2023-02-17T14:57:09;97446.34;;;12.35;70.98
22181;BME280;11256;50.830;12.834;2023-02-17T15:02:16;97446.34;;;12.35;70.60
22181;BME280;11256;50.830;12.834;2023-02-17T15:07:17;97460.84;;;12.30;70.88
22181;BME280;11256;50.830;12.834;2023-02-17T15:12:20;97479.72;;;12.22;71.64
22181;BME280;11256;50.830;12.834;2023-02-17T15:17:20;97454.66;;;12.25;71.62
22181;BME280;11256;50.830;12.834;2023-02-17T15:22:21;97474.38;;;12.17;71.71
22181;BME280;11256;50.830;12.834;2023-02-17T15:27:23;97467.91;;;12.13;71.91
22181;BME280;11256;50.830;12.834;2023-02-17T15:32:23;97480.56;;;12.04;72.86
22181;BME280;11256;50.830;12.834;2023-02-17T15:37:23;97503.59;;;12.06;72.81
22181;BME280;11256;50.830;12.834;2023-02-17T15:42:24;97501.69;;;12.07;72.29
22181;BME280;11256;50.830;12.834;2023-02-17T15:47:25;97521.59;;;12.02;72.94
22181;BME280;11256;50.830;12.834;2023-02-17T15:52:25;97500.06;;;12.06;72.68
22181;BME280;11256;50.830;12.834;2023-02-17T15:57:26;97488.19;;;12.02;72.52
22181;BME280;11256;50.830;12.834;2023-02-17T16:02:26;97499.78;;;12.07;72.43
22181;BME280;11256;50.830;12.834;2023-02-17T16:07:26;97503.97;;;12.00;72.95
22181;BME280;11256;50.830;12.834;2023-02-17T16:12:27;97490.38;;;12.00;71.98
22181;BME280;11256;50.830;12.834;2023-02-17T16:17:27;97484.34;;;12.03;72.40
22181;BME280;11256;50.830;12.834;2023-02-17T16:22:28;97489.97;;;11.93;72.97
22181;BME280;11256;50.830;12.834;2023-02-17T16:27:29;97468.81;;;11.90;72.87
22181;BME280;11256;50.830;12.834;2023-02-17T16:32:29;97453.09;;;11.87;73.21
22181;BME280;11256;50.830;12.834;2023-02-17T16:37:29;97473.72;;;11.88;72.94
22181;BME280;11256;50.830;12.834;2023-02-17T16:42:30;97476.81;;;11.81;73.15
22181;BME280;11256;50.830;12.834;2023-02-17T16:47:30;97472.19;;;11.82;73.33
22181;BME280;11256;50.830;12.834;2023-02-17T16:52:31;97467.97;;;11.71;73.45
22181;BME280;11256;50.830;12.834;2023-02-17T16:57:31;97480.97;;;11.74;73.74
22181;BME280;11256;50.830;12.834;2023-02-17T17:02:31;97497.19;;;11.79;72.86
22181;BME280;11256;50.830;12.834;2023-02-17T17:07:32;97500.97;;;11.83;73.04
22181;BME280;11256;50.830;12.834;2023-02-17T17:12:33;97482.03;;;11.78;73.25
22181;BME280;11256;50.830;12.834;2023-02-17T17:17:41;97491.72;;;11.84;73.05
22181;BME280;11256;50.830;12.834;2023-02-17T17:22:42;97484.59;;;11.88;73.00
22181;BME280;11256;50.830;12.834;2023-02-17T17:27:42;97478.69;;;11.81;73.31
22181;BME280;11256;50.830;12.834;2023-02-17T17:32:45;97501.75;;;11.83;73.67
22181;BME280;11256;50.830;12.834;2023-02-17T17:37:46;97505.63;;;11.77;74.51
22181;BME280;11256;50.830;12.834;2023-02-17T17:42:47;97502.13;;;11.77;75.09
22181;BME280;11256;50.830;12.834;2023-02-17T17:47:47;97503.53;;;11.74;75.02
22181;BME280;11256;50.830;12.834;2023-02-17T17:52:47;97513.94;;;11.86;74.39
22181;BME280;11256;50.830;12.834;2023-02-17T17:57:48;97512.81;;;11.87;74.75
22181;BME280;11256;50.830;12.834;2023-02-17T18:02:48;97509.59;;;11.85;74.90
22181;BME280;11256;50.830;12.834;2023-02-17T18:07:49;97510.03;;;11.92;74.71
22181;BME280;11256;50.830;12.834;2023-02-17T18:12:50;97531.19;;;11.95;74.23
22181;BME280;11256;50.830;12.834;2023-02-17T18:17:51;97528.19;;;11.96;74.57
22181;BME280;11256;50.830;12.834;2023-02-17T18:22:51;97528.97;;;11.97;74.09
22181;BME280;11256;50.830;12.834;2023-02-17T18:27:52;97545.50;;;12.00;75.02
22181;BME280;11256;50.830;12.834;2023-02-17T18:32:52;97545.75;;;12.04;75.47
22181;BME280;11256;50.830;12.834;2023-02-17T18:37:52;97545.50;;;12.00;75.53
22181;BME280;11256;50.830;12.834;2023-02-17T18:42:53;97535.75;;;11.99;76.41
22181;BME280;11256;50.830;12.834;2023-02-17T18:47:53;97546.88;;;11.98;76.68
22181;BME280;11256;50.830;12.834;2023-02-17T18:52:54;97551.81;;;11.96;76.92
22181;BME280;11256;50.830;12.834;2023-02-17T18:57:54;97565.91;;;11.98;76.85
22181;BME280;11256;50.830;12.834;2023-02-17T19:02:55;97576.69;;;12.03;76.55
22181;BME280;11256;50.830;12.834;2023-02-17T19:07:55;97559.59;;;12.02;76.45
22181;BME280;11256;50.830;12.834;2023-02-17T19:12:56;97556.13;;;11.97;77.61
22181;BME280;11256;50.830;12.834;2023-02-17T19:17:56;97567.00;;;11.97;77.89
22181;BME280;11256;50.830;12.834;2023-02-17T19:22:56;97581.69;;;11.96;76.45
22181;BME280;11256;50.830;12.834;2023-02-17T19:27:57;97607.69;;;12.02;76.83
22181;BME280;11256;50.830;12.834;2023-02-17T19:32:57;97659.81;;;12.04;76.11
22181;BME280;11256;50.830;12.834;2023-02-17T19:37:57;97690.53;;;11.99;76.74
22181;BME280;11256;50.830;12.834;2023-02-17T19:42:58;97695.75;;;11.96;77.81
22181;BME280;11256;50.830;12.834;2023-02-17T19:48:00;97707.88;;;11.80;78.27
22181;BME280;11256;50.830;12.834;2023-02-17T19:53:01;97707.53;;;11.86;77.06
22181;BME280;11256;50.830;12.834;2023-02-17T19:58:01;97702.47;;;11.75;77.25
22181;BME280;11256;50.830;12.834;2023-02-17T20:03:01;97703.06;;;11.72;76.75
22181;BME280;11256;50.830;12.834;2023-02-17T20:08:02;97726.91;;;11.75;76.63
22181;BME280;11256;50.830;12.834;2023-02-17T20:13:02;97715.31;;;11.69;76.94
22181;BME280;11256;50.830;12.834;2023-02-17T20:18:02;97715.00;;;11.71;76.52
22181;BME280;11256;50.830;12.834;2023-02-17T20:23:03;97705.28;;;11.65;76.46
22181;BME280;11256;50.830;12.834;2023-02-17T20:28:04;97706.69;;;11.62;76.76
22181;BME280;11256;50.830;12.834;2023-02-17T20:33:04;97705.38;;;11.55;75.97
22181;BME280;11256;50.830;12.834;2023-02-17T20:38:05;97703.78;;;11.49;76.13
22181;BME280;11256;50.830;12.834;2023-02-17T20:43:05;97715.19;;;11.51;76.37
22181;BME280;11256;50.830;12.834;2023-02-17T20:48:06;97719.00;;;11.50;76.03
22181;BME280;11256;50.830;12.834;2023-02-17T20:53:06;97713.03;;;11.48;76.13
22181;BME280;11256;50.830;12.834;2023-02-17T20:58:09;97720.66;;;11.46;75.98
22181;BME280;11256;50.830;12.834;2023-02-17T21:03:09;97714.72;;;11.44;76.31
22181;BME280;11256;50.830;12.834;2023-02-17T21:08:09;97720.97;;;11.39;75.84
22181;BME280;11256;50.830;12.834;2023-02-17T21:13:10;97729.13;;;11.39;75.92
22181;BME280;11256;50.830;12.834;2023-02-17T21:18:10;97722.34;;;11.37;75.57
22181;BME280;11256;50.830;12.834;2023-02-17T21:23:10;97716.50;;;11.25;75.27
22181;BME280;11256;50.830;12.834;2023-02-17T21:28:11;97749.56;;;11.27;75.30
22181;BME280;11256;50.830;12.834;2023-02-17T21:33:11;97755.09;;;11.17;75.14
22181;BME280;11256;50.830;12.834;2023-02-17T21:38:11;97743.22;;;11.08;74.86
22181;BME280;11256;50.830;12.834;2023-02-17T21:43:17;97767.59;;;11.13;75.08
22181;BME280;11256;50.830;12.834;2023-02-17T21:48:37;97765.22;;;11.01;75.00
22181;BME280;11256;50.830;12.834;2023-02-17T21:53:37;97780.97;;;10.99;75.21
22181;BME280;11256;50.830;12.834;2023-02-17T21:58:37;97774.78;;;10.89;75.57
22181;BME280;11256;50.830;12.834;2023-02-17T22:03:38;97807.81;;;10.96;74.90
22181;BME280;11256;50.830;12.834;2023-02-17T22:08:38;97814.06;;;10.91;74.62
22181;BME280;11256;50.830;12.834;2023-02-17T22:13:38;97798.41;;;10.83;74.85
22181;BME280;11256;50.830;12.834;2023-02-17T22:18:39;97826.28;;;10.89;74.67
22181;BME280;11256;50.830;12.834;2023-02-17T22:23:40;97811.13;;;10.83;74.34
22181;BME280;11256;50.830;12.834;2023-02-17T22:28:41;97812.78;;;10.84;74.51
22181;BME280;11256;50.830;12.834;2023-02-17T22:33:42;97803.56;;;10.80;74.56
22181;BME280;11256;50.830;12.834;2023-02-17T22:38:42;97807.88;;;10.86;74.42
22181;BME280;11256;50.830;12.834;2023-02-17T22:43:44;97812.19;;;10.87;74.65
22181;BME280;11256;50.830;12.834;2023-02-17T22:48:46;97813.31;;;10.86;74.75
22181;BME280;11256;50.830;12.834;2023-02-17T22:53:47;97806.28;;;10.80;74.98
22181;BME280;11256;50.830;12.834;2023-02-17T22:58:47;97821.94;;;10.88;74.49
22181;BME280;11256;50.830;12.834;2023-02-17T23:03:54;97818.16;;;10.89;74.68
22181;BME280;11256;50.830;12.834;2023-02-17T23:08:55;97828.72;;;10.90;74.53
22181;BME280;11256;50.830;12.834;2023-02-17T23:13:55;97813.84;;;10.83;74.51
22181;BME280;11256;50.830;12.834;2023-02-17T23:18:56;97839.03;;;10.88;74.97
22181;BME280;11256;50.830;12.834;2023-02-17T23:23:56;97835.84;;;10.81;74.66
22181;BME280;11256;50.830;12.834;2023-02-17T23:28:56;97866.41;;;10.87;74.72
22181;BME280;11256;50.830;12.834;2023-02-17T23:33:57;97875.91;;;10.89;75.48
22181;BME280;11256;50.830;12.834;2023-02-17T23:38:58;97889.19;;;10.91;75.63
22181;BME280;11256;50.830;12.834;2023-02-17T23:43:58;97884.56;;;10.91;75.52
22181;BME280;11256;50.830;12.834;2023-02-17T23:48:59;97889.19;;;10.91;75.17
22181;BME280;11256;50.830;12.834;2023-02-17T23:53:59;97882.69;;;10.87;75.86
22181;BME280;11256;50.830;12.834;2023-02-17T23:59:00;97879.50;;;10.75;75.44
